Time;durP1;ratioP1;P1;durP2;ratioP2;P2;SDS_P1;SDS_P2;PMS_P1;PMS_P2;Temp;Humidity;BMP_temperature;BMP_pressure;BME280_temperature;BME280_humidity;BME280_pressure;Samples;Min_cycle;Max_cycle;Signal;HPM_P1;HPM_P2
2023/05/28 00:02:03;;;;;;;2.40;1.40;;;11.70;93.00;;;;;;5202315;28;20467;-69
2023/05/28 00:04:42;;;;;;;7.32;1.83;;;11.70;99.90;;;;;;5183197;28;20190;-70
2023/05/28 00:07:13;;;;;;;1.05;1.05;;;11.70;99.90;;;;;;5194165;28;20027;-67
2023/05/28 00:09:44;;;;;;;1.80;0.93;;;11.80;99.90;;;;;;5195009;28;20283;-69
2023/05/28 00:12:19;;;;;;;1.45;1.35;;;11.80;99.90;;;;;;5178557;28;20032;-69
2023/05/28 00:14:50;;;;;;;;;;;11.70;99.90;;;;;;5194837;28;20043;-69
2023/05/28 00:17:24;;;;;;;2.92;1.52;;;11.60;99.90;;;;;;5194140;28;19909;-68
2023/05/28 00:19:56;;;;;;;1.73;1.55;;;11.50;99.90;;;;;;5194817;28;20032;-72
2023/05/28 00:22:31;;;;;;;1.75;1.65;;;11.50;99.90;;;;;;5211803;28;20567;-70
2023/05/28 00:25:05;;;;;;;2.38;1.30;;;11.40;99.90;;;;;;5204448;28;20087;-68
2023/05/28 00:27:39;;;;;;;;;;;11.40;99.90;;;;;;5229264;28;20028;-71
2023/05/28 00:30:11;;;;;;;2.00;1.40;;;11.50;99.90;;;;;;5177889;28;19900;-68
2023/05/28 00:32:43;;;;;;;2.45;1.40;;;11.50;99.90;;;;;;5178147;28;20662;-67
2023/05/28 00:35:18;;;;;;;2.05;1.63;;;11.50;99.90;;;;;;5176774;28;20033;-68
2023/05/28 00:37:49;;;;;;;2.33;1.48;;;11.40;1.00;;;;;;5178244;28;20037;-72
2023/05/28 00:40:21;;;;;;;2.40;1.92;;;11.30;1.00;;;;;;5211798;28;20032;-70
2023/05/28 00:42:55;;;;;;;2.25;1.75;;;11.20;1.00;;;;;;5210194;28;20029;-63
2023/05/28 00:45:27;;;;;;;3.28;1.70;;;11.10;99.90;;;;;;5206034;28;20046;-69
2023/05/28 00:48:01;;;;;;;7.88;1.60;;;11.00;1.00;;;;;;5214635;28;20032;-69
2023/05/28 00:50:32;;;;;;;1.90;1.60;;;10.90;1.00;;;;;;5233695;28;20039;-69
2023/05/28 00:53:05;;;;;;;4.13;2.05;;;10.90;1.00;;;;;;5214514;28;20142;-70
2023/05/28 00:55:40;;;;;;;2.05;1.83;;;10.80;1.00;;;;;;5187612;28;20041;-72
2023/05/28 00:58:15;;;;;;;1.77;1.67;;;10.80;99.90;;;;;;5172262;28;20043;-71
2023/05/28 01:01:30;;;;;;;2.47;1.38;;;10.70;99.90;;;;;;5238793;22;20021;-87
2023/05/28 01:04:46;;;;;;;1.25;1.13;;;10.70;99.90;;;;;;5214531;28;20036;-87
2023/05/28 01:07:49;;;;;;;1.48;1.00;;;10.90;96.40;;;;;;5258717;28;20092;-87
2023/05/28 01:10:55;;;;;;;3.97;2.00;;;11.10;1.00;;;;;;5219342;28;20039;-87
2023/05/28 01:14:33;;;;;;;1.88;1.60;;;11.30;1.00;;;;;;5215503;28;20047;-87
2023/05/28 01:21:20;;;;;;;1.48;1.27;;;11.40;1.00;;;;;;5140821;28;20026;-88
2023/05/28 01:23:58;;;;;;;2.85;1.58;;;11.60;1.00;;;;;;5147146;28;20045;-86
2023/05/28 01:26:30;;;;;;;1.65;1.55;;;11.60;99.90;;;;;;5148478;28;20374;-86
2023/05/28 01:29:16;;;;;;;2.05;1.30;;;11.60;99.90;;;;;;5148956;28;20038;-86
2023/05/28 01:32:34;;;;;;;4.35;1.63;;;11.70;99.90;;;;;;5152841;28;20034;-87
2023/05/28 01:39:00;;;;;;;3.53;1.20;;;11.50;99.90;;;;;;5176863;28;20030;-87
2023/05/28 01:41:36;;;;;;;1.67;1.55;;;11.50;99.90;;;;;;5152440;28;20044;-86
2023/05/28 01:44:13;;;;;;;3.53;1.30;;;11.50;99.90;;;;;;5148560;28;20034;-87
2023/05/28 01:54:32;;;;;;;2.25;1.60;;;11.50;99.90;;;;;;5179434;28;20028;-86
2023/05/28 02:01:33;;;;;;;9.57;1.50;;;11.60;99.90;;;;;;5136808;28;20066;-87
2023/05/28 02:05:16;;;;;;;1.27;1.17;;;11.60;99.90;;;;;;5159345;28;20014;-89
2023/05/28 02:08:14;;;;;;;2.13;1.30;;;11.50;99.90;;;;;;5154152;28;20029;-87
2023/05/28 02:11:37;;;;;;;2.03;1.55;;;11.50;99.90;;;;;;5149684;28;20018;-88
2023/05/28 02:14:26;;;;;;;2.22;2.00;;;11.50;99.90;;;;;;5111686;29;20034;-87
2023/05/28 02:20:47;;;;;;;2.03;1.50;;;11.40;99.90;;;;;;5147161;28;20030;-87
2023/05/28 02:23:49;;;;;;;3.22;1.30;;;11.40;99.90;;;;;;5143706;28;20123;-88
2023/05/28 02:26:51;;;;;;;1.53;1.40;;;11.20;99.90;;;;;;5144488;28;20219;-88
2023/05/28 02:33:56;;;;;;;1.50;1.40;;;11.10;99.90;;;;;;5093402;29;20070;-87
2023/05/28 02:36:48;;;;;;;1.60;1.35;;;11.00;99.90;;;;;;5143099;28;20038;-87
2023/05/28 02:43:00;;;;;;;1.45;1.35;;;10.90;99.90;;;;;;5146674;29;20031;-87
2023/05/28 02:45:36;;;;;;;1.80;1.70;;;10.70;99.90;;;;;;5182900;28;20385;-87
2023/05/28 02:48:41;;;;;;;2.03;1.83;;;10.60;1.00;;;;;;5165996;28;20052;-87
2023/05/28 02:51:52;;;;;;;1.42;1.33;;;10.40;1.00;;;;;;5156630;28;20037;-87
2023/05/28 02:54:48;;;;;;;2.97;1.70;;;10.40;1.00;;;;;;5188486;28;20037;-86
2023/05/28 02:57:22;;;;;;;1.38;1.10;;;10.30;99.90;;;;;;5164530;28;20037;-86
2023/05/28 02:59:57;;;;;;;1.95;1.60;;;10.20;1.00;;;;;;5164359;28;20038;-86
2023/05/28 03:02:29;;;;;;;2.50;1.30;;;10.20;1.00;;;;;;5163228;28;20060;-87
2023/05/28 03:05:02;;;;;;;1.95;1.42;;;10.20;1.00;;;;;;5169960;28;20043;-85
2023/05/28 03:07:36;;;;;;;2.10;1.90;;;10.30;1.00;;;;;;5162801;28;20041;-86
2023/05/28 03:10:35;;;;;;;2.45;2.17;;;10.20;1.00;;;;;;5197664;28;20025;-88
2023/05/28 03:13:25;;;;;;;2.97;1.50;;;10.20;1.00;;;;;;5162779;28;20050;-87
2023/05/28 03:15:58;;;;;;;2.00;1.30;;;10.20;1.00;;;;;;5179334;28;20036;-88
2023/05/28 03:19:04;;;;;;;1.50;1.35;;;10.20;1.00;;;;;;5162750;28;20027;-87
2023/05/28 03:22:01;;;;;;;;;;;10.20;1.00;;;;;;5162069;28;20104;-88
2023/05/28 03:28:29;;;;;;;3.47;1.17;;;10.20;1.00;;;;;;5157757;28;20037;-87
2023/05/28 03:31:30;;;;;;;2.40;2.00;;;10.30;1.00;;;;;;5141939;28;20030;-86
2023/05/28 03:34:14;;;;;;;5.50;1.73;;;10.40;1.00;;;;;;5121300;28;20037;-86
2023/05/28 03:36:45;;;;;;;;;;;10.50;1.00;;;;;;5145209;28;20350;-85
2023/05/28 03:42:21;;;;;;;1.50;1.30;;;10.90;99.90;;;;;;5162444;28;20026;-86
2023/05/28 03:44:55;;;;;;;2.28;1.77;;;11.00;99.90;;;;;;5143976;28;20040;-86
2023/05/28 03:47:27;;;;;;;1.88;1.40;;;11.10;1.00;;;;;;5144849;28;20037;-85
2023/05/28 03:50:06;;;;;;;4.43;2.13;;;11.40;1.00;;;;;;5150839;28;20354;-87
2023/05/28 03:52:43;;;;;;;2.10;1.50;;;11.50;1.00;;;;;;5128412;29;20042;-87
2023/05/28 03:58:44;;;;;;;1.40;1.30;;;11.70;1.00;;;;;;5197262;28;20105;-86
2023/05/28 04:01:21;;;;;;;1.83;1.73;;;11.90;1.00;;;;;;5164181;28;20121;-86
2023/05/28 04:04:20;;;;;;;3.00;1.80;;;12.00;1.00;;;;;;5206627;28;20032;-86
2023/05/28 04:06:52;;;;;;;1.75;1.40;;;12.10;99.90;;;;;;5176262;28;20038;-86
2023/05/28 04:09:29;;;;;;;6.93;1.98;;;12.20;99.90;;;;;;5161454;28;20032;-87
2023/05/28 04:12:06;;;;;;;3.00;1.98;;;12.40;99.90;;;;;;5168677;28;20036;-87
2023/05/28 04:14:41;;;;;;;1.83;1.30;;;12.50;99.90;;;;;;5176728;28;20038;-87
2023/05/28 04:17:15;;;;;;;1.95;1.60;;;12.50;99.90;;;;;;5144933;28;20308;-86
2023/05/28 04:19:58;;;;;;;3.17;1.85;;;12.70;99.90;;;;;;5166512;28;20040;-86
2023/05/28 04:22:31;;;;;;;2.13;1.63;;;12.80;99.90;;;;;;5176400;28;20034;-86
2023/05/28 04:25:08;;;;;;;2.25;1.50;;;12.90;99.90;;;;;;5204148;28;20039;-88
2023/05/28 04:27:44;;;;;;;1.60;1.50;;;13.00;99.90;;;;;;5186820;28;20409;-86
2023/05/28 04:30:15;;;;;;;1.88;1.60;;;13.20;99.90;;;;;;5202813;28;20029;-86
2023/05/28 04:32:48;;;;;;;2.35;1.88;;;13.20;31.20;;;;;;5202452;28;20029;-86
2023/05/28 04:35:22;;;;;;;1.63;1.40;;;13.40;19.30;;;;;;5202262;28;20223;-87
2023/05/28 04:37:56;;;;;;;2.20;1.60;;;13.40;10.80;;;;;;5202123;28;20227;-86
2023/05/28 04:40:30;;;;;;;1.45;1.35;;;13.50;1.00;;;;;;5202971;28;20029;-85
2023/05/28 04:43:08;;;;;;;4.55;1.73;;;13.60;1.00;;;;;;5201935;28;20037;-86
2023/05/28 04:45:43;;;;;;;2.63;1.50;;;13.80;1.00;;;;;;5202667;28;20032;-86
2023/05/28 04:48:14;;;;;;;;;;;13.90;1.00;;;;;;5202072;28;20030;-87
2023/05/28 04:50:50;;;;;;;1.70;1.33;;;13.80;1.00;;;;;;5202392;28;19915;-86
2023/05/28 04:53:31;;;;;;;2.58;1.35;;;13.80;1.00;;;;;;5210307;28;20035;-87
2023/05/28 04:56:06;;;;;;;5.55;2.58;;;13.80;1.00;;;;;;5192841;28;20034;-87
2023/05/28 04:58:40;;;;;;;3.15;1.92;;;13.90;1.00;;;;;;5187349;28;20030;-86
2023/05/28 05:01:14;;;;;;;;;;;14.00;1.00;;;;;;5173364;28;20029;-86
2023/05/28 05:03:55;;;;;;;2.65;1.52;;;14.20;1.00;;;;;;5194732;28;19909;-87
2023/05/28 05:06:48;;;;;;;3.20;1.83;;;14.20;1.00;;;;;;5217062;28;20132;-87
2023/05/28 05:09:26;;;;;;;2.15;1.75;;;14.60;1.00;;;;;;5240874;28;20025;-86
2023/05/28 05:11:59;;;;;;;3.80;1.95;;;14.50;1.00;;;;;;5209553;28;20048;-87
2023/05/28 05:14:34;;;;;;;2.85;1.38;;;14.60;1.00;;;;;;5209351;28;20039;-86
2023/05/28 05:17:12;;;;;;;1.50;1.40;;;14.90;1.00;;;;;;5226591;28;20033;-88
2023/05/28 05:19:46;;;;;;;2.28;1.48;;;15.00;1.00;;;;;;5239682;28;20055;-86
2023/05/28 05:22:20;;;;;;;1.73;1.63;;;14.80;1.00;;;;;;5207190;28;20306;-86
2023/05/28 05:24:52;;;;;;;2.10;1.80;;;14.80;99.90;;;;;;5223092;28;20032;-87
2023/05/28 05:27:28;;;;;;;2.33;1.90;;;14.90;99.90;;;;;;5222415;28;20029;-86
2023/05/28 05:30:02;;;;;;;2.47;2.10;;;15.00;99.90;;;;;;5223122;28;20029;-86
2023/05/28 05:32:33;;;;;;;2.35;1.80;;;14.90;99.90;;;;;;5222024;28;20029;-86
2023/05/28 05:35:06;;;;;;;6.43;2.13;;;15.00;99.90;;;;;;5205962;28;20033;-86
2023/05/28 05:37:37;;;;;;;2.00;1.60;;;14.80;99.90;;;;;;5222434;28;20039;-86
2023/05/28 05:40:15;;;;;;;1.70;1.60;;;14.80;99.90;;;;;;5239303;28;20033;-86
2023/05/28 05:42:47;;;;;;;2.08;1.70;;;14.80;99.90;;;;;;5222089;28;20033;-86
2023/05/28 05:45:22;;;;;;;2.97;2.15;;;14.90;99.90;;;;;;5222725;28;20040;-86
2023/05/28 05:47:54;;;;;;;1.55;1.23;;;14.90;99.90;;;;;;5221120;28;20031;-85
2023/05/28 05:50:28;;;;;;;2.28;1.88;;;15.00;99.90;;;;;;5221574;28;20035;-86
2023/05/28 05:53:04;;;;;;;3.63;1.60;;;15.20;99.90;;;;;;5224393;28;20032;-86
2023/05/28 05:55:40;;;;;;;2.00;1.55;;;15.20;99.90;;;;;;5205883;28;20029;-86
2023/05/28 05:58:15;;;;;;;2.42;2.15;;;15.40;99.90;;;;;;5221224;28;20050;-85
2023/05/28 06:00:52;;;;;;;2.15;1.63;;;15.40;99.90;;;;;;5222429;28;20025;-87
2023/05/28 06:03:27;;;;;;;2.33;2.00;;;15.60;68.70;;;;;;5220424;28;20041;-87
2023/05/28 06:06:11;;;;;;;2.07;1.70;;;15.60;1.00;;;;;;5214443;28;20045;-86
2023/05/28 06:08:45;;;;;;;2.58;1.80;;;15.60;1.00;;;;;;5211747;28;20035;-87
2023/05/28 06:11:23;;;;;;;2.10;1.60;;;15.90;1.00;;;;;;5227545;28;20029;-86
2023/05/28 06:13:58;;;;;;;1.92;1.50;;;16.00;1.00;;;;;;5224679;28;20214;-86
2023/05/28 06:16:36;;;;;;;3.08;1.40;;;16.20;1.00;;;;;;5208213;28;20037;-85
2023/05/28 06:19:08;;;;;;;2.90;2.00;;;16.50;1.00;;;;;;5208347;28;20028;-86
2023/05/28 06:21:45;;;;;;;2.22;1.70;;;16.60;1.00;;;;;;5208100;28;20035;-85
2023/05/28 06:24:21;;;;;;;2.60;1.90;;;16.60;1.00;;;;;;5207946;28;20047;-85
2023/05/28 06:26:58;;;;;;;4.43;1.35;;;16.60;1.00;;;;;;5241081;28;20035;-85
2023/05/28 06:29:34;;;;;;;3.47;1.45;;;16.90;1.00;;;;;;5240900;28;20024;-85
2023/05/28 06:32:07;;;;;;;2.22;1.73;;;17.70;1.00;;;;;;5206212;28;20048;-85
2023/05/28 06:34:41;;;;;;;2.67;1.73;;;18.00;1.00;;;;;;5223850;28;20024;-87
2023/05/28 06:37:13;;;;;;;2.17;1.42;;;17.90;99.90;;;;;;5224962;28;20194;-86
2023/05/28 06:39:47;;;;;;;2.90;1.88;;;17.50;99.90;;;;;;5207808;28;20028;-86
2023/05/28 06:42:18;;;;;;;2.67;1.80;;;17.50;99.90;;;;;;5209566;28;20032;-84
2023/05/28 06:45:00;;;;;;;3.17;2.10;;;17.30;99.90;;;;;;5207680;28;20041;-85
2023/05/28 06:47:38;;;;;;;1.77;1.30;;;17.10;99.90;;;;;;5228816;28;20031;-88
2023/05/28 06:50:10;;;;;;;2.28;1.60;;;17.50;99.90;;;;;;5207271;28;20039;-85
2023/05/28 06:52:50;;;;;;;2.35;1.50;;;18.00;99.90;;;;;;5207003;28;20210;-86
2023/05/28 06:55:29;;;;;;;2.35;1.90;;;18.00;99.90;;;;;;5245120;28;20037;-86
2023/05/28 06:58:08;;;;;;;2.92;1.92;;;17.80;99.90;;;;;;5227617;28;20029;-86
2023/05/28 07:00:43;;;;;;;1.90;1.38;;;17.60;99.90;;;;;;5223994;28;20226;-86
2023/05/28 07:03:17;;;;;;;2.08;1.90;;;17.70;99.90;;;;;;5207070;28;20040;-86
2023/05/28 07:05:57;;;;;;;3.03;2.10;;;17.70;99.90;;;;;;5213475;28;20239;-86
2023/05/28 07:08:32;;;;;;;4.60;2.20;;;17.90;99.90;;;;;;5224241;28;20031;-86
2023/05/28 07:11:08;;;;;;;2.63;1.83;;;17.60;99.90;;;;;;5223670;28;20029;-86
2023/05/28 07:13:42;;;;;;;3.35;1.45;;;17.90;99.90;;;;;;5223764;28;20037;-86
2023/05/28 07:16:14;;;;;;;2.05;1.67;;;17.90;99.90;;;;;;5206846;28;20039;-87
2023/05/28 07:18:50;;;;;;;3.33;1.55;;;17.70;99.90;;;;;;5223635;28;20311;-86
2023/05/28 07:21:34;;;;;;;1.92;1.73;;;17.80;99.90;;;;;;5210881;28;20203;-87
2023/05/28 07:24:20;;;;;;;2.50;1.60;;;18.20;99.90;;;;;;5233115;28;20039;-87
2023/05/28 07:26:55;;;;;;;3.22;1.75;;;18.30;99.90;;;;;;5220079;28;20035;-86
2023/05/28 07:29:32;;;;;;;4.47;2.47;;;18.50;99.90;;;;;;5212316;28;20349;-86
2023/05/28 07:32:14;;;;;;;3.28;2.08;;;18.90;99.90;;;;;;5215004;28;20031;-87
2023/05/28 07:34:46;;;;;;;1.98;1.40;;;19.10;99.90;;;;;;5213895;28;20035;-87
2023/05/28 07:37:19;;;;;;;5.55;2.53;;;19.20;99.90;;;;;;5241548;28;20033;-86
2023/05/28 07:39:55;;;;;;;1.88;1.77;;;19.30;99.90;;;;;;5241117;28;20035;-86
2023/05/28 07:42:30;;;;;;;3.33;1.70;;;19.60;99.90;;;;;;5212117;28;20231;-87
2023/05/28 07:48:30;;;;;;;1.73;1.40;;;19.10;9.40;;;;;;5224803;28;20035;-85
2023/05/28 07:51:01;;;;;;;1.75;1.50;;;19.50;99.90;;;;;;5207148;28;20025;-85
2023/05/28 07:53:33;;;;;;;2.30;1.70;;;20.00;99.90;;;;;;5207643;28;20037;-86
2023/05/28 07:59:37;;;;;;;2.40;1.55;;;20.70;99.90;;;;;;5222990;28;20035;-86
2023/05/28 08:02:08;;;;;;;3.25;2.15;;;20.90;99.90;;;;;;5239036;28;20043;-86
2023/05/28 08:04:39;;;;;;;3.78;2.08;;;20.80;99.90;;;;;;5195270;28;20055;-86
2023/05/28 08:07:12;;;;;;;2.75;1.92;;;20.80;99.90;;;;;;5222326;28;20033;-86
2023/05/28 08:09:44;;;;;;;2.38;1.70;;;20.50;1.00;;;;;;5205624;28;20029;-86
2023/05/28 08:12:21;;;;;;;3.28;1.65;;;20.50;1.00;;;;;;5205449;28;20028;-86
2023/05/28 08:14:57;;;;;;;2.33;1.58;;;20.50;1.00;;;;;;5206114;28;20029;-87
2023/05/28 08:17:31;;;;;;;2.90;1.60;;;20.90;99.90;;;;;;5209248;28;20196;-87
2023/05/28 08:20:09;;;;;;;2.17;1.73;;;21.20;99.90;;;;;;5205896;28;20044;-85
2023/05/28 08:22:42;;;;;;;4.00;1.70;;;21.20;99.90;;;;;;5222735;28;20035;-87
2023/05/28 08:25:17;;;;;;;5.28;1.80;;;21.30;53.90;;;;;;5238422;28;20029;-86
2023/05/28 08:27:51;;;;;;;2.78;1.77;;;22.00;99.90;;;;;;5205400;28;20029;-87
2023/05/28 08:30:26;;;;;;;4.72;2.17;;;22.10;75.00;;;;;;5222143;28;20222;-87
2023/05/28 08:33:01;;;;;;;2.35;1.50;;;21.80;1.00;;;;;;5240488;28;20043;-86
2023/05/28 08:35:44;;;;;;;2.88;1.60;;;21.20;1.00;;;;;;5210748;28;20029;-87
2023/05/28 08:38:16;;;;;;;3.03;1.85;;;21.10;1.00;;;;;;5206850;28;20035;-87
2023/05/28 08:41:03;;;;;;;1.75;1.30;;;21.10;1.00;;;;;;5205437;28;20327;-86
2023/05/28 08:43:34;;;;;;;2.08;1.52;;;21.40;1.00;;;;;;5221523;28;20033;-85
2023/05/28 08:46:11;;;;;;;2.72;1.58;;;21.80;1.00;;;;;;5204984;28;20028;-86
2023/05/28 08:49:11;;;;;;;3.40;1.92;;;21.60;1.00;;;;;;5208507;28;20033;-89
2023/05/28 08:51:44;;;;;;;4.38;1.83;;;21.50;1.00;;;;;;5225591;28;20035;-86
2023/05/28 08:54:24;;;;;;;3.15;2.00;;;21.30;1.00;;;;;;5208648;28;20043;-86
2023/05/28 08:56:58;;;;;;;4.43;1.92;;;22.10;1.00;;;;;;5211335;28;20035;-87
2023/05/28 08:59:35;;;;;;;3.80;1.80;;;22.50;16.40;;;;;;5194414;28;20039;-87
2023/05/28 09:02:11;;;;;;;1.48;1.25;;;23.10;32.30;;;;;;5223402;28;20280;-87
2023/05/28 09:04:46;;;;;;;2.08;1.33;;;23.90;1.00;;;;;;5200763;28;20043;-85
2023/05/28 09:07:22;;;;;;;3.38;1.45;;;23.90;99.90;;;;;;5225953;28;20056;-85
2023/05/28 09:09:57;;;;;;;2.55;1.70;;;24.00;1.00;;;;;;5226226;28;20328;-85
2023/05/28 09:12:31;;;;;;;2.03;1.63;;;23.90;47.70;;;;;;5258409;28;20331;-85
2023/05/28 09:15:07;;;;;;;2.38;1.70;;;23.80;99.90;;;;;;5226370;28;20038;-85
2023/05/28 09:17:40;;;;;;;4.65;2.25;;;24.00;99.90;;;;;;5241797;28;20054;-85
2023/05/28 09:20:13;;;;;;;3.72;2.10;;;23.30;99.90;;;;;;5225688;28;20028;-86
2023/05/28 09:22:44;;;;;;;2.58;1.80;;;23.70;99.90;;;;;;5224904;28;20039;-86
2023/05/28 09:25:16;;;;;;;3.65;2.10;;;24.30;99.90;;;;;;5224897;28;20042;-85
2023/05/28 09:27:48;;;;;;;2.63;1.70;;;24.90;99.90;;;;;;5224968;28;20031;-84
2023/05/28 09:30:22;;;;;;;2.35;1.58;;;25.00;99.90;;;;;;5224877;28;20034;-86
2023/05/28 09:33:07;;;;;;;3.33;1.77;;;25.50;99.90;;;;;;5241423;28;20025;-86
2023/05/28 09:35:44;;;;;;;3.20;1.75;;;26.10;99.90;;;;;;5241810;28;20032;-86
2023/05/28 09:38:18;;;;;;;3.67;1.77;;;25.90;99.90;;;;;;5224686;28;20124;-86
2023/05/28 09:40:49;;;;;;;3.90;1.92;;;25.60;99.90;;;;;;5224924;28;20035;-86
2023/05/28 09:43:33;;;;;;;4.55;2.00;;;25.20;99.90;;;;;;5228587;28;20028;-87
2023/05/28 09:46:10;;;;;;;3.22;1.80;;;25.30;99.90;;;;;;5228900;28;20088;-86
2023/05/28 09:48:45;;;;;;;5.90;1.77;;;26.30;99.90;;;;;;5261912;28;20031;-85
2023/05/28 09:51:19;;;;;;;4.28;2.10;;;26.80;1.00;;;;;;5263766;28;20033;-86
2023/05/28 09:54:07;;;;;;;3.30;1.90;;;26.70;1.00;;;;;;5263976;28;20025;-87
2023/05/28 09:56:45;;;;;;;2.63;1.50;;;26.80;99.90;;;;;;5247106;28;20021;-86
2023/05/28 09:59:18;;;;;;;2.88;1.75;;;27.20;99.90;;;;;;5250627;28;20314;-87
2023/05/28 10:02:09;;;;;;;2.45;1.63;;;27.70;99.90;;;;;;5251578;28;20043;-87
2023/05/28 10:04:47;;;;;;;3.05;2.10;;;28.10;1.00;;;;;;5255099;28;20041;-88
2023/05/28 10:07:24;;;;;;;2.35;1.50;;;28.10;1.00;;;;;;5246146;28;20029;-86
2023/05/28 10:10:01;;;;;;;2.58;1.67;;;28.00;1.00;;;;;;5245601;28;20038;-86
2023/05/28 10:12:34;;;;;;;2.10;1.80;;;27.60;1.00;;;;;;5244830;28;20028;-85
2023/05/28 10:15:07;;;;;;;1.92;1.75;;;27.40;99.90;;;;;;5244506;28;20323;-86
2023/05/28 10:17:41;;;;;;;2.92;1.90;;;27.70;1.00;;;;;;5244707;28;20033;-85
2023/05/28 10:20:14;;;;;;;4.15;2.17;;;27.80;1.00;;;;;;5244751;28;20039;-86
2023/05/28 10:22:50;;;;;;;2.90;2.05;;;28.50;1.00;;;;;;5228017;28;20034;-86
2023/05/28 10:28:56;;;;;;;2.40;1.45;;;29.40;1.00;;;;;;5244728;28;20191;-86
2023/05/28 10:31:30;;;;;;;4.53;1.77;;;29.00;99.90;;;;;;5246158;28;20024;-85
2023/05/28 10:34:13;;;;;;;2.95;1.85;;;28.50;1.00;;;;;;5230189;28;20034;-85
2023/05/28 10:36:56;;;;;;;3.70;2.22;;;28.50;1.00;;;;;;5244146;28;20326;-87
2023/05/28 10:39:36;;;;;;;3.75;1.90;;;29.30;1.00;;;;;;5228125;28;20035;-86
2023/05/28 10:42:13;;;;;;;2.92;2.20;;;30.40;99.90;;;;;;5264623;28;20035;-87
2023/05/28 10:45:06;;;;;;;2.47;1.77;;;30.50;1.00;;;;;;5228901;28;20040;-85
2023/05/28 10:47:56;;;;;;;4.18;2.22;;;30.30;99.90;;;;;;5244265;28;20024;-86
2023/05/28 10:50:55;;;;;;;3.97;2.13;;;30.50;1.00;;;;;;5245184;28;20025;-86
2023/05/28 10:53:30;;;;;;;3.90;2.40;;;30.30;99.90;;;;;;5260989;28;20303;-86
2023/05/28 11:00:00;;;;;;;4.80;2.38;;;31.10;1.00;;;;;;5244203;28;20036;-86
2023/05/28 11:02:35;;;;;;;4.20;2.20;;;32.20;1.00;;;;;;5243816;28;20112;-87
2023/05/28 11:05:11;;;;;;;2.70;1.40;;;31.40;1.00;;;;;;5250455;28;20045;-87
2023/05/28 11:07:46;;;;;;;3.13;1.75;;;31.60;1.00;;;;;;5244517;28;20428;-88
2023/05/28 11:10:17;;;;;;;3.78;2.00;;;32.70;99.90;;;;;;5227387;28;20222;-88
2023/05/28 11:12:56;;;;;;;3.00;1.67;;;33.20;1.00;;;;;;5228395;28;20038;-87
2023/05/28 11:15:44;;;;;;;2.72;2.13;;;32.70;99.90;;;;;;5242908;28;20024;-86
2023/05/28 11:18:15;;;;;;;3.05;1.70;;;32.70;99.90;;;;;;5227714;28;20025;-86
2023/05/28 11:20:47;;;;;;;3.72;1.88;;;32.70;1.00;;;;;;5227161;28;20214;-86
2023/05/28 11:23:25;;;;;;;2.53;1.80;;;33.40;1.00;;;;;;5232967;28;20035;-88
2023/05/28 11:25:56;;;;;;;6.03;3.33;;;33.70;99.90;;;;;;5242920;28;20028;-85
2023/05/28 11:28:36;;;;;;;4.45;2.30;;;33.00;1.00;;;;;;5210472;28;20036;-86
2023/05/28 11:31:10;;;;;;;4.55;2.17;;;32.50;1.00;;;;;;5227014;28;20029;-87
2023/05/28 11:33:47;;;;;;;4.38;2.03;;;32.70;1.00;;;;;;5227850;28;20028;-85
2023/05/28 11:39:59;;;;;;;3.95;1.98;;;32.90;99.90;;;;;;5243717;28;20033;-86
2023/05/28 11:42:38;;;;;;;5.28;2.47;;;33.80;99.90;;;;;;5243867;28;20043;-87
2023/05/28 11:48:38;;;;;;;4.65;2.13;;;34.20;99.90;;;;;;5260755;28;20030;-88
2023/05/28 11:51:10;;;;;;;3.38;2.10;;;35.10;99.90;;;;;;5226960;28;20024;-86
2023/05/28 11:53:43;;;;;;;3.97;2.35;;;36.60;1.00;;;;;;5226700;28;20039;-87
2023/05/28 12:00:11;;;;;;;3.15;2.28;;;37.20;1.00;;;;;;5242906;28;20031;-86
2023/05/28 12:02:45;;;;;;;2.33;1.88;;;36.00;1.00;;;;;;5242604;28;20033;-86
2023/05/28 12:05:17;;;;;;;;;;;35.60;1.00;;;;;;5231646;28;20043;-87
2023/05/28 12:07:54;;;;;;;2.90;1.85;;;35.30;1.00;;;;;;5242322;28;19901;-87
2023/05/28 12:10:32;;;;;;;2.55;2.30;;;35.30;1.00;;;;;;5259282;28;20038;-87
2023/05/28 12:13:10;;;;;;;4.45;1.95;;;35.00;1.00;;;;;;5259417;28;20348;-87
2023/05/28 12:15:43;;;;;;;2.58;1.70;;;36.40;1.00;;;;;;5242691;28;20028;-86
2023/05/28 12:18:22;;;;;;;2.88;2.58;;;37.70;1.00;;;;;;5226623;28;20036;-87
2023/05/28 12:20:58;;;;;;;3.33;2.30;;;37.90;99.90;;;;;;5247741;28;20030;-89
2023/05/28 12:23:30;;;;;;;4.25;2.72;;;37.40;99.90;;;;;;5229988;28;20039;-88
2023/05/28 12:26:11;;;;;;;3.57;2.40;;;36.90;99.90;;;;;;5232354;28;20028;-87
2023/05/28 12:29:06;;;;;;;3.67;2.50;;;36.50;99.90;;;;;;5251273;28;20031;-88
2023/05/28 12:31:40;;;;;;;1.90;1.77;;;36.60;99.90;;;;;;5247574;28;20039;-86
2023/05/28 12:34:11;;;;;;;;;;;36.80;99.90;;;;;;5230643;28;20024;-87
2023/05/28 12:36:45;;;;;;;3.63;1.77;;;36.60;99.90;;;;;;5245768;28;19900;-88
2023/05/28 12:39:19;;;;;;;3.65;2.50;;;35.20;99.90;;;;;;5229374;28;20034;-88
2023/05/28 12:42:00;;;;;;;3.85;2.70;;;35.70;99.90;;;;;;5228626;28;20038;-89
2023/05/28 12:44:33;;;;;;;5.30;2.30;;;35.40;99.90;;;;;;5225233;28;20032;-86
2023/05/28 12:47:17;;;;;;;3.33;2.03;;;36.00;99.90;;;;;;5241453;28;20025;-86
2023/05/28 12:49:48;;;;;;;4.05;2.47;;;35.80;99.90;;;;;;5228677;28;20028;-86
2023/05/28 12:52:27;;;;;;;2.25;2.05;;;35.00;99.90;;;;;;5214232;28;20031;-89
2023/05/28 12:55:03;;;;;;;3.30;2.17;;;36.30;99.90;;;;;;5229934;28;20314;-88
2023/05/28 12:57:39;;;;;;;5.93;2.45;;;37.50;99.90;;;;;;5228509;28;20036;-86
2023/05/28 13:00:15;;;;;;;4.45;2.53;;;37.70;99.90;;;;;;5226835;28;20034;-87
2023/05/28 13:02:50;;;;;;;5.15;2.35;;;37.50;99.90;;;;;;5226167;28;20052;-86
2023/05/28 13:05:22;;;;;;;7.38;2.70;;;37.40;99.90;;;;;;5215220;28;20231;-86
2023/05/28 13:07:55;;;;;;;2.22;2.00;;;36.00;99.90;;;;;;5241466;28;20051;-86
2023/05/28 13:10:27;;;;;;;;;;;36.50;92.10;;;;;;5242055;28;20036;-88
2023/05/28 13:13:11;;;;;;;3.83;2.33;;;36.80;99.90;;;;;;5245563;28;19900;-88
2023/05/28 13:15:44;;;;;;;3.72;2.55;;;38.30;99.90;;;;;;5228347;28;20037;-87
2023/05/28 13:18:21;;;;;;;2.42;2.22;;;37.10;99.90;;;;;;5232453;28;20027;-87
2023/05/28 13:20:52;;;;;;;4.38;2.42;;;37.80;99.90;;;;;;5269209;28;20025;-89
2023/05/28 13:23:25;;;;;;;5.13;2.22;;;38.30;1.00;;;;;;5240003;28;20029;-87
2023/05/28 13:29:32;;;;;;;3.38;2.17;;;36.50;99.90;;;;;;5249005;28;20210;-88
2023/05/28 13:32:05;;;;;;;4.22;2.28;;;36.50;99.90;;;;;;5250673;28;20035;-88
2023/05/28 13:34:41;;;;;;;2.83;1.88;;;37.10;99.90;;;;;;5252286;28;20038;-88
2023/05/28 13:37:16;;;;;;;2.58;2.15;;;37.50;99.90;;;;;;5252175;28;20046;-88
2023/05/28 13:39:52;;;;;;;3.53;2.40;;;37.20;99.90;;;;;;5234172;28;20047;-87
2023/05/28 13:42:35;;;;;;;2.92;2.55;;;35.20;99.90;;;;;;5231033;28;20039;-88
2023/05/28 13:45:09;;;;;;;2.60;2.15;;;35.60;99.90;;;;;;5231403;28;20035;-87
2023/05/28 13:47:44;;;;;;;3.25;2.30;;;35.50;99.90;;;;;;5247050;28;20035;-87
2023/05/28 13:50:18;;;;;;;2.90;1.98;;;35.50;65.90;;;;;;5262068;28;20035;-87
2023/05/28 13:52:53;;;;;;;6.88;2.83;;;35.60;94.50;;;;;;5232027;28;20024;-85
2023/05/28 13:58:56;;;;;;;4.50;2.72;;;37.20;99.90;;;;;;5246461;28;20032;-88
2023/05/28 14:01:39;;;;;;;5.70;2.28;;;36.60;57.30;;;;;;5245690;28;20035;-87
2023/05/28 14:04:16;;;;;;;6.25;2.38;;;36.60;99.90;;;;;;5235416;28;20037;-86
2023/05/28 14:06:51;;;;;;;5.75;1.98;;;36.80;18.20;;;;;;5245540;28;20032;-86
2023/05/28 14:09:22;;;;;;;4.75;2.20;;;36.30;15.00;;;;;;5228764;28;20024;-86
2023/05/28 14:11:55;;;;;;;3.33;2.15;;;34.80;63.70;;;;;;5228574;28;20025;-87
2023/05/28 14:14:26;;;;;;;4.65;2.50;;;33.50;1.00;;;;;;5229608;28;20036;-87
2023/05/28 14:17:01;;;;;;;2.83;1.92;;;32.50;1.00;;;;;;5230067;28;20037;-87
2023/05/28 14:23:09;;;;;;;3.67;2.10;;;34.10;1.00;;;;;;5244805;28;20334;-86
2023/05/28 14:25:55;;;;;;;1.92;1.77;;;35.30;1.00;;;;;;5248195;28;20051;-87
2023/05/28 14:28:32;;;;;;;5.63;2.40;;;36.40;99.90;;;;;;5244547;28;20318;-87
2023/05/28 14:31:05;;;;;;;3.75;2.35;;;36.90;15.60;;;;;;5242162;28;20252;-86
2023/05/28 14:33:39;;;;;;;2.85;1.92;;;36.10;1.00;;;;;;5228475;28;20035;-86
2023/05/28 14:36:11;;;;;;;;;;;36.70;29.00;;;;;;5228493;28;20334;-87
2023/05/28 14:38:48;;;;;;;3.92;2.25;;;36.50;1.00;;;;;;5228869;28;19900;-87
2023/05/28 14:41:26;;;;;;;3.97;2.35;;;36.50;1.00;;;;;;5261766;28;20039;-86
2023/05/28 14:44:01;;;;;;;3.80;2.05;;;35.90;1.00;;;;;;5244484;28;20028;-86
2023/05/28 14:46:38;;;;;;;3.70;2.17;;;35.20;1.00;;;;;;5249316;28;20103;-87
2023/05/28 14:49:13;;;;;;;5.40;2.25;;;35.20;1.00;;;;;;5231844;28;20036;-88
2023/05/28 14:51:45;;;;;;;3.92;2.22;;;35.40;1.00;;;;;;5228497;28;20032;-86
2023/05/28 14:54:18;;;;;;;3.60;2.33;;;34.40;1.00;;;;;;5228379;28;20035;-86
2023/05/28 14:56:52;;;;;;;3.17;1.90;;;33.60;1.00;;;;;;5244345;28;20052;-86
2023/05/28 14:59:26;;;;;;;3.15;2.10;;;33.60;1.00;;;;;;5260889;28;20034;-87
2023/05/28 15:01:57;;;;;;;3.33;2.35;;;33.90;1.00;;;;;;5229697;28;20042;-88
2023/05/28 15:04:34;;;;;;;3.65;2.03;;;33.80;1.00;;;;;;5217951;28;20354;-86
2023/05/28 15:07:10;;;;;;;4.00;2.25;;;33.70;1.00;;;;;;5244437;28;20036;-86